sensor_id;sensor_type;location;lat;lon;timestamp;P1;durP1;ratioP1;P2;durP2;ratioP2
56581;SDS011;42463;52.214;21.238;2023-07-13T00:01:45;15.30;;;13.70;;
56581;SDS011;42463;52.214;21.238;2023-07-13T00:03:52;15.50;;;13.00;;
56581;SDS011;42463;52.214;21.238;2023-07-13T00:05:59;14.40;;;12.90;;
56581;SDS011;42463;52.214;21.238;2023-07-13T00:08:05;15.50;;;13.90;;
56581;SDS011;42463;52.214;21.238;2023-07-13T00:10:12;15.50;;;13.60;;
56581;SDS011;42463;52.214;21.238;2023-07-13T00:12:23;15.10;;;13.10;;
56581;SDS011;42463;52.214;21.238;2023-07-13T00:16:36;15.10;;;12.70;;
56581;SDS011;42463;52.214;21.238;2023-07-13T00:18:43;15.30;;;13.30;;
56581;SDS011;42463;52.214;21.238;2023-07-13T00:20:49;16.80;;;13.20;;
56581;SDS011;42463;52.214;21.238;2023-07-13T00:22:55;14.60;;;13.10;;
56581;SDS011;42463;52.214;21.238;2023-07-13T00:25:00;15.90;;;12.90;;
56581;SDS011;42463;52.214;21.238;2023-07-13T00:27:06;15.40;;;13.30;;
56581;SDS011;42463;52.214;21.238;2023-07-13T00:29:13;13.80;;;12.40;;
56581;SDS011;42463;52.214;21.238;2023-07-13T00:31:19;15.10;;;13.60;;
56581;SDS011;42463;52.214;21.238;2023-07-13T00:33:24;15.00;;;13.40;;
56581;SDS011;42463;52.214;21.238;2023-07-13T00:35:31;15.00;;;13.20;;
56581;SDS011;42463;52.214;21.238;2023-07-13T00:37:38;14.40;;;12.90;;
56581;SDS011;42463;52.214;21.238;2023-07-13T00:39:43;16.10;;;13.20;;
56581;SDS011;42463;52.214;21.238;2023-07-13T00:41:49;15.70;;;14.00;;
56581;SDS011;42463;52.214;21.238;2023-07-13T00:43:55;14.90;;;13.30;;
56581;SDS011;42463;52.214;21.238;2023-07-13T00:48:27;15.60;;;13.70;;
56581;SDS011;42463;52.214;21.238;2023-07-13T00:50:36;14.50;;;13.00;;
56581;SDS011;42463;52.214;21.238;2023-07-13T00:52:44;17.70;;;14.50;;
56581;SDS011;42463;52.214;21.238;2023-07-13T00:54:53;15.80;;;13.70;;
56581;SDS011;42463;52.214;21.238;2023-07-13T00:56:59;15.90;;;13.40;;
56581;SDS011;42463;52.214;21.238;2023-07-13T00:59:08;15.70;;;13.60;;
56581;SDS011;42463;52.214;21.238;2023-07-13T01:03:43;15.20;;;13.60;;
56581;SDS011;42463;52.214;21.238;2023-07-13T01:05:50;15.50;;;13.20;;
56581;SDS011;42463;52.214;21.238;2023-07-13T01:07:57;15.20;;;13.60;;
56581;SDS011;42463;52.214;21.238;2023-07-13T01:10:05;15.70;;;13.30;;
56581;SDS011;42463;52.214;21.238;2023-07-13T01:12:12;16.20;;;13.80;;
56581;SDS011;42463;52.214;21.238;2023-07-13T01:14:17;14.90;;;13.00;;
56581;SDS011;42463;52.214;21.238;2023-07-13T01:16:24;13.90;;;12.50;;
56581;SDS011;42463;52.214;21.238;2023-07-13T02:14:22;14.40;;;12.90;;
56581;SDS011;42463;52.214;21.238;2023-07-13T02:16:27;14.90;;;13.30;;
56581;SDS011;42463;52.214;21.238;2023-07-13T02:18:33;15.50;;;13.30;;
56581;SDS011;42463;52.214;21.238;2023-07-13T02:20:39;14.40;;;12.80;;
56581;SDS011;42463;52.214;21.238;2023-07-13T02:22:44;14.00;;;12.40;;
56581;SDS011;42463;52.214;21.238;2023-07-13T02:24:50;15.50;;;13.30;;
56581;SDS011;42463;52.214;21.238;2023-07-13T02:26:55;14.90;;;13.30;;
56581;SDS011;42463;52.214;21.238;2023-07-13T02:29:01;16.10;;;13.40;;
56581;SDS011;42463;52.214;21.238;2023-07-13T02:31:07;17.20;;;13.70;;
56581;SDS011;42463;52.214;21.238;2023-07-13T02:33:15;15.40;;;13.40;;
56581;SDS011;42463;52.214;21.238;2023-07-13T02:35:20;15.00;;;13.30;;
56581;SDS011;42463;52.214;21.238;2023-07-13T02:37:26;16.00;;;13.70;;
56581;SDS011;42463;52.214;21.238;2023-07-13T02:39:32;15.80;;;12.90;;
56581;SDS011;42463;52.214;21.238;2023-07-13T02:41:40;14.70;;;13.10;;
56581;SDS011;42463;52.214;21.238;2023-07-13T02:43:46;15.60;;;12.50;;
56581;SDS011;42463;52.214;21.238;2023-07-13T02:45:52;14.80;;;12.70;;
56581;SDS011;42463;52.214;21.238;2023-07-13T02:47:57;14.20;;;12.70;;
56581;SDS011;42463;52.214;21.238;2023-07-13T02:50:03;16.40;;;13.10;;
56581;SDS011;42463;52.214;21.238;2023-07-13T02:52:10;15.10;;;13.60;;
56581;SDS011;42463;52.214;21.238;2023-07-13T02:54:15;15.10;;;13.20;;
56581;SDS011;42463;52.214;21.238;2023-07-13T02:56:22;14.10;;;12.60;;
56581;SDS011;42463;52.214;21.238;2023-07-13T02:58:30;14.10;;;12.60;;
56581;SDS011;42463;52.214;21.238;2023-07-13T03:00:38;14.80;;;12.40;;
56581;SDS011;42463;52.214;21.238;2023-07-13T03:02:44;14.60;;;13.10;;
56581;SDS011;42463;52.214;21.238;2023-07-13T03:04:50;15.30;;;12.40;;
56581;SDS011;42463;52.214;21.238;2023-07-13T03:06:55;15.20;;;12.20;;
56581;SDS011;42463;52.214;21.238;2023-07-13T03:09:04;14.20;;;12.00;;
56581;SDS011;42463;52.214;21.238;2023-07-13T03:11:12;14.50;;;12.40;;
56581;SDS011;42463;52.214;21.238;2023-07-13T03:13:19;17.10;;;13.60;;
56581;SDS011;42463;52.214;21.238;2023-07-13T03:15:24;17.20;;;13.00;;
56581;SDS011;42463;52.214;21.238;2023-07-13T03:17:31;16.80;;;13.40;;
56581;SDS011;42463;52.214;21.238;2023-07-13T03:19:37;16.80;;;13.20;;
56581;SDS011;42463;52.214;21.238;2023-07-13T03:21:43;15.30;;;12.60;;
56581;SDS011;42463;52.214;21.238;2023-07-13T03:23:48;14.70;;;12.50;;
56581;SDS011;42463;52.214;21.238;2023-07-13T03:26:02;16.90;;;12.50;;
56581;SDS011;42463;52.214;21.238;2023-07-13T03:28:09;17.30;;;13.50;;
56581;SDS011;42463;52.214;21.238;2023-07-13T03:30:16;14.50;;;12.80;;
56581;SDS011;42463;52.214;21.238;2023-07-13T03:32:21;15.10;;;12.50;;
56581;SDS011;42463;52.214;21.238;2023-07-13T03:34:27;14.70;;;12.50;;
56581;SDS011;42463;52.214;21.238;2023-07-13T03:36:34;15.90;;;12.10;;
56581;SDS011;42463;52.214;21.238;2023-07-13T03:38:42;14.50;;;12.70;;
56581;SDS011;42463;52.214;21.238;2023-07-13T03:40:50;14.90;;;12.20;;
56581;SDS011;42463;52.214;21.238;2023-07-13T03:42:56;15.50;;;12.40;;
56581;SDS011;42463;52.214;21.238;2023-07-13T03:45:02;14.30;;;12.50;;
56581;SDS011;42463;52.214;21.238;2023-07-13T03:47:09;17.10;;;12.80;;
56581;SDS011;42463;52.214;21.238;2023-07-13T03:49:15;17.40;;;13.20;;
56581;SDS011;42463;52.214;21.238;2023-07-13T03:51:20;17.60;;;12.90;;
56581;SDS011;42463;52.214;21.238;2023-07-13T03:53:27;16.20;;;13.70;;
56581;SDS011;42463;52.214;21.238;2023-07-13T03:55:32;15.50;;;12.70;;
56581;SDS011;42463;52.214;21.238;2023-07-13T03:57:38;17.30;;;14.00;;
56581;SDS011;42463;52.214;21.238;2023-07-13T03:59:44;17.20;;;13.80;;
56581;SDS011;42463;52.214;21.238;2023-07-13T04:01:50;16.50;;;14.20;;
56581;SDS011;42463;52.214;21.238;2023-07-13T04:03:56;17.30;;;13.50;;
56581;SDS011;42463;52.214;21.238;2023-07-13T04:06:03;18.10;;;14.50;;
56581;SDS011;42463;52.214;21.238;2023-07-13T04:08:10;16.50;;;14.30;;
56581;SDS011;42463;52.214;21.238;2023-07-13T04:10:15;17.10;;;14.00;;
56581;SDS011;42463;52.214;21.238;2023-07-13T04:12:22;16.00;;;12.70;;
56581;SDS011;42463;52.214;21.238;2023-07-13T04:14:29;14.60;;;11.80;;
56581;SDS011;42463;52.214;21.238;2023-07-13T04:16:34;13.30;;;11.90;;
56581;SDS011;42463;52.214;21.238;2023-07-13T04:18:40;16.00;;;12.90;;
56581;SDS011;42463;52.214;21.238;2023-07-13T04:20:46;15.10;;;13.50;;
56581;SDS011;42463;52.214;21.238;2023-07-13T04:22:52;15.40;;;12.70;;
56581;SDS011;42463;52.214;21.238;2023-07-13T04:24:58;14.50;;;12.90;;
56581;SDS011;42463;52.214;21.238;2023-07-13T04:27:04;15.60;;;13.00;;
56581;SDS011;42463;52.214;21.238;2023-07-13T04:29:10;14.50;;;12.90;;
56581;SDS011;42463;52.214;21.238;2023-07-13T04:31:18;14.10;;;12.60;;
56581;SDS011;42463;52.214;21.238;2023-07-13T04:33:23;14.40;;;13.00;;
56581;SDS011;42463;52.214;21.238;2023-07-13T04:35:29;14.50;;;13.00;;
56581;SDS011;42463;52.214;21.238;2023-07-13T04:37:35;15.20;;;12.30;;
56581;SDS011;42463;52.214;21.238;2023-07-13T04:39:41;15.20;;;11.90;;
56581;SDS011;42463;52.214;21.238;2023-07-13T04:41:47;13.60;;;12.20;;
56581;SDS011;42463;52.214;21.238;2023-07-13T04:43:52;15.20;;;12.40;;
56581;SDS011;42463;52.214;21.238;2023-07-13T04:46:03;15.80;;;12.20;;
56581;SDS011;42463;52.214;21.238;2023-07-13T04:48:11;15.00;;;12.20;;
56581;SDS011;42463;52.214;21.238;2023-07-13T04:50:16;13.30;;;11.20;;
56581;SDS011;42463;52.214;21.238;2023-07-13T04:52:25;13.70;;;12.10;;
56581;SDS011;42463;52.214;21.238;2023-07-13T04:54:31;16.20;;;12.50;;
56581;SDS011;42463;52.214;21.238;2023-07-13T04:56:36;16.20;;;12.50;;
56581;SDS011;42463;52.214;21.238;2023-07-13T04:58:42;13.50;;;11.40;;
56581;SDS011;42463;52.214;21.238;2023-07-13T05:00:48;16.50;;;12.90;;
56581;SDS011;42463;52.214;21.238;2023-07-13T05:02:53;14.70;;;12.20;;
56581;SDS011;42463;52.214;21.238;2023-07-13T05:05:00;14.20;;;12.00;;
56581;SDS011;42463;52.214;21.238;2023-07-13T05:07:06;15.80;;;13.90;;
56581;SDS011;42463;52.214;21.238;2023-07-13T05:09:12;15.40;;;13.00;;
56581;SDS011;42463;52.214;21.238;2023-07-13T05:11:17;14.80;;;12.70;;
56581;SDS011;42463;52.214;21.238;2023-07-13T05:13:23;17.50;;;14.30;;
56581;SDS011;42463;52.214;21.238;2023-07-13T05:15:29;18.20;;;15.00;;
56581;SDS011;42463;52.214;21.238;2023-07-13T05:17:34;19.60;;;15.10;;
56581;SDS011;42463;52.214;21.238;2023-07-13T05:19:41;18.30;;;15.30;;
56581;SDS011;42463;52.214;21.238;2023-07-13T05:21:47;20.20;;;15.10;;
56581;SDS011;42463;52.214;21.238;2023-07-13T05:23:53;19.30;;;15.30;;
56581;SDS011;42463;52.214;21.238;2023-07-13T05:26:00;16.80;;;14.90;;
56581;SDS011;42463;52.214;21.238;2023-07-13T05:28:05;17.90;;;14.10;;
56581;SDS011;42463;52.214;21.238;2023-07-13T05:30:12;20.00;;;15.70;;
56581;SDS011;42463;52.214;21.238;2023-07-13T05:32:18;21.20;;;14.60;;
56581;SDS011;42463;52.214;21.238;2023-07-13T05:34:24;14.50;;;12.80;;
56581;SDS011;42463;52.214;21.238;2023-07-13T05:36:30;14.90;;;12.60;;
56581;SDS011;42463;52.214;21.238;2023-07-13T05:38:36;14.20;;;12.60;;
56581;SDS011;42463;52.214;21.238;2023-07-13T05:40:43;15.20;;;13.10;;
56581;SDS011;42463;52.214;21.238;2023-07-13T05:42:49;16.00;;;13.80;;
56581;SDS011;42463;52.214;21.238;2023-07-13T05:44:55;17.80;;;15.70;;
56581;SDS011;42463;52.214;21.238;2023-07-13T05:47:00;16.00;;;14.30;;
56581;SDS011;42463;52.214;21.238;2023-07-13T05:49:07;18.10;;;13.80;;
56581;SDS011;42463;52.214;21.238;2023-07-13T05:51:13;17.40;;;15.30;;
56581;SDS011;42463;52.214;21.238;2023-07-13T05:53:18;21.30;;;15.40;;
56581;SDS011;42463;52.214;21.238;2023-07-13T05:55:24;20.40;;;16.10;;
56581;SDS011;42463;52.214;21.238;2023-07-13T05:57:31;17.50;;;14.30;;
56581;SDS011;42463;52.214;21.238;2023-07-13T05:59:37;18.20;;;16.00;;
56581;SDS011;42463;52.214;21.238;2023-07-13T06:01:42;20.20;;;16.00;;
56581;SDS011;42463;52.214;21.238;2023-07-13T06:03:48;20.50;;;15.70;;
56581;SDS011;42463;52.214;21.238;2023-07-13T06:05:54;17.60;;;14.70;;
56581;SDS011;42463;52.214;21.238;2023-07-13T06:08:03;17.30;;;15.10;;
56581;SDS011;42463;52.214;21.238;2023-07-13T06:10:09;18.50;;;15.50;;
56581;SDS011;42463;52.214;21.238;2023-07-13T06:12:15;20.00;;;15.10;;
56581;SDS011;42463;52.214;21.238;2023-07-13T06:14:20;17.70;;;15.00;;
56581;SDS011;42463;52.214;21.238;2023-07-13T06:16:27;19.80;;;14.20;;
56581;SDS011;42463;52.214;21.238;2023-07-13T06:18:33;16.20;;;13.80;;
56581;SDS011;42463;52.214;21.238;2023-07-13T06:20:40;17.00;;;14.40;;
56581;SDS011;42463;52.214;21.238;2023-07-13T06:22:45;16.40;;;13.40;;
56581;SDS011;42463;52.214;21.238;2023-07-13T06:24:51;21.70;;;14.00;;
56581;SDS011;42463;52.214;21.238;2023-07-13T06:26:57;17.50;;;14.30;;
56581;SDS011;42463;52.214;21.238;2023-07-13T06:29:03;16.90;;;13.70;;
56581;SDS011;42463;52.214;21.238;2023-07-13T06:31:09;19.20;;;13.90;;
56581;SDS011;42463;52.214;21.238;2023-07-13T06:33:17;16.90;;;13.40;;
56581;SDS011;42463;52.214;21.238;2023-07-13T06:35:22;13.50;;;11.00;;
56581;SDS011;42463;52.214;21.238;2023-07-13T06:37:28;13.00;;;10.20;;
56581;SDS011;42463;52.214;21.238;2023-07-13T06:39:33;13.60;;;9.40;;
56581;SDS011;42463;52.214;21.238;2023-07-13T06:41:39;13.60;;;10.60;;
56581;SDS011;42463;52.214;21.238;2023-07-13T06:43:46;13.40;;;10.20;;
56581;SDS011;42463;52.214;21.238;2023-07-13T06:45:54;13.30;;;9.80;;
56581;SDS011;42463;52.214;21.238;2023-07-13T06:48:00;12.20;;;10.80;;
56581;SDS011;42463;52.214;21.238;2023-07-13T06:50:07;17.80;;;10.00;;
56581;SDS011;42463;52.214;21.238;2023-07-13T06:52:14;11.90;;;9.80;;
56581;SDS011;42463;52.214;21.238;2023-07-13T06:54:19;11.20;;;9.70;;
56581;SDS011;42463;52.214;21.238;2023-07-13T06:56:25;12.00;;;9.70;;
56581;SDS011;42463;52.214;21.238;2023-07-13T06:58:30;11.20;;;7.80;;
56581;SDS011;42463;52.214;21.238;2023-07-13T07:00:37;9.50;;;8.20;;
56581;SDS011;42463;52.214;21.238;2023-07-13T07:02:43;8.50;;;7.30;;
56581;SDS011;42463;52.214;21.238;2023-07-13T07:04:48;8.80;;;7.40;;
56581;SDS011;42463;52.214;21.238;2023-07-13T07:06:54;9.20;;;7.90;;
56581;SDS011;42463;52.214;21.238;2023-07-13T07:09:00;10.00;;;8.80;;
56581;SDS011;42463;52.214;21.238;2023-07-13T07:11:05;8.40;;;6.90;;
56581;SDS011;42463;52.214;21.238;2023-07-13T07:13:12;8.20;;;7.40;;
56581;SDS011;42463;52.214;21.238;2023-07-13T07:15:18;8.10;;;7.20;;
56581;SDS011;42463;52.214;21.238;2023-07-13T07:17:23;9.50;;;7.50;;
56581;SDS011;42463;52.214;21.238;2023-07-13T07:19:30;9.10;;;7.60;;
56581;SDS011;42463;52.214;21.238;2023-07-13T07:21:37;10.20;;;7.70;;
56581;SDS011;42463;52.214;21.238;2023-07-13T07:23:43;9.30;;;8.30;;
56581;SDS011;42463;52.214;21.238;2023-07-13T07:25:49;9.10;;;7.10;;
56581;SDS011;42463;52.214;21.238;2023-07-13T07:27:55;8.30;;;7.40;;
56581;SDS011;42463;52.214;21.238;2023-07-13T07:30:00;12.50;;;7.70;;
56581;SDS011;42463;52.214;21.238;2023-07-13T07:32:07;7.20;;;6.50;;
56581;SDS011;42463;52.214;21.238;2023-07-13T07:34:13;6.80;;;6.00;;
56581;SDS011;42463;52.214;21.238;2023-07-13T07:36:18;6.90;;;6.20;;
56581;SDS011;42463;52.214;21.238;2023-07-13T07:38:24;8.10;;;6.90;;
56581;SDS011;42463;52.214;21.238;2023-07-13T07:40:29;7.90;;;7.00;;
56581;SDS011;42463;52.214;21.238;2023-07-13T07:42:39;7.60;;;6.80;;
56581;SDS011;42463;52.214;21.238;2023-07-13T07:44:45;7.70;;;6.80;;
56581;SDS011;42463;52.214;21.238;2023-07-13T07:46:50;7.60;;;6.80;;
56581;SDS011;42463;52.214;21.238;2023-07-13T07:48:56;8.20;;;6.90;;
56581;SDS011;42463;52.214;21.238;2023-07-13T07:51:02;10.40;;;6.60;;
56581;SDS011;42463;52.214;21.238;2023-07-13T07:53:07;9.40;;;7.10;;
56581;SDS011;42463;52.214;21.238;2023-07-13T07:55:13;7.80;;;7.00;;
56581;SDS011;42463;52.214;21.238;2023-07-13T07:57:18;8.10;;;7.30;;
56581;SDS011;42463;52.214;21.238;2023-07-13T07:59:24;7.50;;;6.80;;
56581;SDS011;42463;52.214;21.238;2023-07-13T08:01:29;8.60;;;6.90;;
56581;SDS011;42463;52.214;21.238;2023-07-13T08:03:35;8.90;;;7.40;;
56581;SDS011;42463;52.214;21.238;2023-07-13T08:05:40;8.70;;;7.70;;
56581;SDS011;42463;52.214;21.238;2023-07-13T08:07:46;8.80;;;7.90;;
56581;SDS011;42463;52.214;21.238;2023-07-13T08:09:53;9.60;;;8.60;;
56581;SDS011;42463;52.214;21.238;2023-07-13T08:11:58;11.10;;;9.10;;
56581;SDS011;42463;52.214;21.238;2023-07-13T08:14:04;10.30;;;9.20;;
56581;SDS011;42463;52.214;21.238;2023-07-13T08:16:10;9.60;;;8.60;;
56581;SDS011;42463;52.214;21.238;2023-07-13T08:18:16;9.30;;;8.10;;
56581;SDS011;42463;52.214;21.238;2023-07-13T08:20:21;8.70;;;7.80;;
56581;SDS011;42463;52.214;21.238;2023-07-13T08:22:27;8.30;;;7.50;;
56581;SDS011;42463;52.214;21.238;2023-07-13T08:24:33;8.50;;;7.60;;
56581;SDS011;42463;52.214;21.238;2023-07-13T08:26:38;8.90;;;6.10;;
56581;SDS011;42463;52.214;21.238;2023-07-13T08:28:44;6.60;;;6.00;;
56581;SDS011;42463;52.214;21.238;2023-07-13T08:30:49;6.60;;;5.80;;
56581;SDS011;42463;52.214;21.238;2023-07-13T08:32:55;7.10;;;6.40;;
56581;SDS011;42463;52.214;21.238;2023-07-13T08:35:00;8.90;;;7.00;;
56581;SDS011;42463;52.214;21.238;2023-07-13T08:37:07;7.50;;;6.10;;
56581;SDS011;42463;52.214;21.238;2023-07-13T08:39:13;9.40;;;8.50;;
56581;SDS011;42463;52.214;21.238;2023-07-13T08:41:20;9.50;;;8.10;;
56581;SDS011;42463;52.214;21.238;2023-07-13T08:43:26;9.00;;;8.10;;
56581;SDS011;42463;52.214;21.238;2023-07-13T08:45:37;8.50;;;7.60;;
56581;SDS011;42463;52.214;21.238;2023-07-13T08:47:47;7.40;;;6.80;;
56581;SDS011;42463;52.214;21.238;2023-07-13T08:49:56;8.70;;;7.40;;
56581;SDS011;42463;52.214;21.238;2023-07-13T08:52:05;10.10;;;8.10;;
56581;SDS011;42463;52.214;21.238;2023-07-13T08:54:21;8.70;;;7.70;;
56581;SDS011;42463;52.214;21.238;2023-07-13T08:56:32;9.90;;;7.50;;
56581;SDS011;42463;52.214;21.238;2023-07-13T08:58:37;7.00;;;6.30;;
56581;SDS011;42463;52.214;21.238;2023-07-13T09:00:50;7.60;;;6.60;;
56581;SDS011;42463;52.214;21.238;2023-07-13T09:03:02;6.90;;;5.90;;
56581;SDS011;42463;52.214;21.238;2023-07-13T09:05:10;8.70;;;6.50;;
56581;SDS011;42463;52.214;21.238;2023-07-13T09:07:21;7.00;;;6.20;;
56581;SDS011;42463;52.214;21.238;2023-07-13T09:09:39;7.00;;;6.20;;
56581;SDS011;42463;52.214;21.238;2023-07-13T09:11:58;7.50;;;6.40;;
56581;SDS011;42463;52.214;21.238;2023-07-13T09:14:24;7.10;;;6.40;;
56581;SDS011;42463;52.214;21.238;2023-07-13T09:16:41;7.40;;;6.50;;
56581;SDS011;42463;52.214;21.238;2023-07-13T09:18:49;8.90;;;6.30;;
56581;SDS011;42463;52.214;21.238;2023-07-13T09:20:59;8.60;;;7.40;;
56581;SDS011;42463;52.214;21.238;2023-07-13T09:23:10;7.20;;;6.50;;
56581;SDS011;42463;52.214;21.238;2023-07-13T09:25:23;7.50;;;6.70;;
56581;SDS011;42463;52.214;21.238;2023-07-13T09:27:33;8.00;;;7.20;;
56581;SDS011;42463;52.214;21.238;2023-07-13T09:29:45;7.90;;;6.60;;
56581;SDS011;42463;52.214;21.238;2023-07-13T09:31:54;8.20;;;7.00;;
56581;SDS011;42463;52.214;21.238;2023-07-13T09:34:02;7.50;;;6.70;;
56581;SDS011;42463;52.214;21.238;2023-07-13T09:36:19;8.70;;;6.90;;
56581;SDS011;42463;52.214;21.238;2023-07-13T09:38:29;8.20;;;7.30;;
56581;SDS011;42463;52.214;21.238;2023-07-13T09:40:39;8.50;;;7.70;;
56581;SDS011;42463;52.214;21.238;2023-07-13T09:42:51;8.60;;;7.70;;
56581;SDS011;42463;52.214;21.238;2023-07-13T09:44:59;8.70;;;7.60;;
56581;SDS011;42463;52.214;21.238;2023-07-13T09:47:15;9.20;;;8.00;;
56581;SDS011;42463;52.214;21.238;2023-07-13T09:49:24;8.70;;;7.80;;
56581;SDS011;42463;52.214;21.238;2023-07-13T09:51:31;7.80;;;7.00;;
56581;SDS011;42463;52.214;21.238;2023-07-13T09:53:37;9.80;;;5.50;;
56581;SDS011;42463;52.214;21.238;2023-07-13T09:55:48;5.10;;;4.60;;
56581;SDS011;42463;52.214;21.238;2023-07-13T09:57:55;7.50;;;4.30;;
56581;SDS011;42463;52.214;21.238;2023-07-13T10:00:01;11.10;;;3.70;;
56581;SDS011;42463;52.214;21.238;2023-07-13T10:04:40;4.90;;;4.40;;
56581;SDS011;42463;52.214;21.238;2023-07-13T10:06:46;4.30;;;3.90;;
56581;SDS011;42463;52.214;21.238;2023-07-13T10:09:08;5.20;;;3.60;;
56581;SDS011;42463;52.214;21.238;2023-07-13T10:11:19;4.30;;;3.90;;
56581;SDS011;42463;52.214;21.238;2023-07-13T10:13:30;4.20;;;3.60;;
56581;SDS011;42463;52.214;21.238;2023-07-13T10:15:39;6.70;;;3.50;;
56581;SDS011;42463;52.214;21.238;2023-07-13T10:17:45;6.20;;;4.00;;
56581;SDS011;42463;52.214;21.238;2023-07-13T10:19:51;5.70;;;3.40;;
56581;SDS011;42463;52.214;21.238;2023-07-13T10:21:58;6.50;;;3.40;;
56581;SDS011;42463;52.214;21.238;2023-07-13T10:24:10;4.10;;;3.20;;
56581;SDS011;42463;52.214;21.238;2023-07-13T10:26:21;4.20;;;3.20;;
56581;SDS011;42463;52.214;21.238;2023-07-13T10:28:29;5.30;;;3.30;;
56581;SDS011;42463;52.214;21.238;2023-07-13T10:30:39;6.20;;;3.20;;
56581;SDS011;42463;52.214;21.238;2023-07-13T10:32:49;6.80;;;3.30;;
56581;SDS011;42463;52.214;21.238;2023-07-13T10:34:56;3.30;;;2.90;;
56581;SDS011;42463;52.214;21.238;2023-07-13T10:37:05;5.20;;;3.10;;
56581;SDS011;42463;52.214;21.238;2023-07-13T10:39:20;3.40;;;3.10;;
56581;SDS011;42463;52.214;21.238;2023-07-13T10:41:28;4.70;;;3.10;;
56581;SDS011;42463;52.214;21.238;2023-07-13T10:43:38;3.30;;;3.00;;
56581;SDS011;42463;52.214;21.238;2023-07-13T10:45:46;5.30;;;3.20;;
56581;SDS011;42463;52.214;21.238;2023-07-13T10:47:54;4.20;;;3.10;;
56581;SDS011;42463;52.214;21.238;2023-07-13T10:50:01;4.30;;;2.90;;
56581;SDS011;42463;52.214;21.238;2023-07-13T10:52:27;3.40;;;3.10;;
56581;SDS011;42463;52.214;21.238;2023-07-13T10:54:47;2.80;;;2.50;;
56581;SDS011;42463;52.214;21.238;2023-07-13T10:57:07;3.10;;;2.80;;
56581;SDS011;42463;52.214;21.238;2023-07-13T10:59:23;3.80;;;3.00;;
56581;SDS011;42463;52.214;21.238;2023-07-13T11:01:40;3.50;;;2.90;;
56581;SDS011;42463;52.214;21.238;2023-07-13T11:03:54;4.30;;;3.30;;
56581;SDS011;42463;52.214;21.238;2023-07-13T11:06:07;4.20;;;3.20;;
56581;SDS011;42463;52.214;21.238;2023-07-13T11:08:18;4.30;;;3.10;;
56581;SDS011;42463;52.214;21.238;2023-07-13T11:10:48;3.60;;;3.30;;
56581;SDS011;42463;52.214;21.238;2023-07-13T11:12:56;3.50;;;2.60;;
56581;SDS011;42463;52.214;21.238;2023-07-13T11:15:10;4.70;;;3.30;;
56581;SDS011;42463;52.214;21.238;2023-07-13T11:17:29;4.00;;;3.20;;
56581;SDS011;42463;52.214;21.238;2023-07-13T11:19:40;3.70;;;3.30;;
56581;SDS011;42463;52.214;21.238;2023-07-13T11:24:18;4.00;;;3.20;;
56581;SDS011;42463;52.214;21.238;2023-07-13T11:28:44;5.40;;;3.10;;
56581;SDS011;42463;52.214;21.238;2023-07-13T11:31:01;3.80;;;3.20;;
56581;SDS011;42463;52.214;21.238;2023-07-13T11:33:19;4.30;;;3.40;;
56581;SDS011;42463;52.214;21.238;2023-07-13T11:35:26;4.90;;;3.40;;
56581;SDS011;42463;52.214;21.238;2023-07-13T11:37:33;5.00;;;3.10;;
56581;SDS011;42463;52.214;21.238;2023-07-13T11:39:40;11.90;;;6.40;;
56581;SDS011;42463;52.214;21.238;2023-07-13T11:41:50;18.90;;;8.30;;
56581;SDS011;42463;52.214;21.238;2023-07-13T11:44:06;11.20;;;5.50;;
56581;SDS011;42463;52.214;21.238;2023-07-13T11:46:18;14.70;;;6.20;;
56581;SDS011;42463;52.214;21.238;2023-07-13T11:48:28;14.30;;;6.00;;
56581;SDS011;42463;52.214;21.238;2023-07-13T11:50:35;13.20;;;5.50;;
56581;SDS011;42463;52.214;21.238;2023-07-13T11:52:41;11.50;;;4.20;;
56581;SDS011;42463;52.214;21.238;2023-07-13T11:54:48;5.80;;;3.60;;
56581;SDS011;42463;52.214;21.238;2023-07-13T11:56:59;5.50;;;3.80;;
56581;SDS011;42463;52.214;21.238;2023-07-13T11:59:11;6.90;;;3.80;;
56581;SDS011;42463;52.214;21.238;2023-07-13T12:01:20;7.30;;;3.90;;
56581;SDS011;42463;52.214;21.238;2023-07-13T12:03:29;10.00;;;5.10;;
56581;SDS011;42463;52.214;21.238;2023-07-13T12:05:36;8.20;;;4.50;;
56581;SDS011;42463;52.214;21.238;2023-07-13T12:07:59;6.60;;;4.10;;
56581;SDS011;42463;52.214;21.238;2023-07-13T12:10:17;5.50;;;4.20;;
56581;SDS011;42463;52.214;21.238;2023-07-13T12:12:29;4.90;;;4.00;;
56581;SDS011;42463;52.214;21.238;2023-07-13T12:14:35;7.90;;;4.40;;
56581;SDS011;42463;52.214;21.238;2023-07-13T12:16:40;7.30;;;4.10;;
56581;SDS011;42463;52.214;21.238;2023-07-13T12:18:46;4.60;;;3.60;;
56581;SDS011;42463;52.214;21.238;2023-07-13T12:20:51;7.10;;;4.20;;
56581;SDS011;42463;52.214;21.238;2023-07-13T12:22:59;5.10;;;4.00;;
56581;SDS011;42463;52.214;21.238;2023-07-13T12:25:11;7.20;;;3.80;;
56581;SDS011;42463;52.214;21.238;2023-07-13T12:27:20;6.70;;;4.40;;
56581;SDS011;42463;52.214;21.238;2023-07-13T12:29:28;6.70;;;4.10;;
56581;SDS011;42463;52.214;21.238;2023-07-13T12:31:36;5.30;;;4.10;;
56581;SDS011;42463;52.214;21.238;2023-07-13T12:33:45;5.40;;;4.60;;
56581;SDS011;42463;52.214;21.238;2023-07-13T12:35:51;5.20;;;3.90;;
56581;SDS011;42463;52.214;21.238;2023-07-13T12:37:58;5.80;;;4.00;;
56581;SDS011;42463;52.214;21.238;2023-07-13T12:40:05;5.50;;;4.30;;
56581;SDS011;42463;52.214;21.238;2023-07-13T12:42:21;8.30;;;4.50;;
56581;SDS011;42463;52.214;21.238;2023-07-13T12:44:32;6.60;;;4.70;;
56581;SDS011;42463;52.214;21.238;2023-07-13T12:46:38;8.50;;;4.50;;
56581;SDS011;42463;52.214;21.238;2023-07-13T12:48:56;6.10;;;4.60;;
56581;SDS011;42463;52.214;21.238;2023-07-13T12:51:03;7.50;;;4.70;;
56581;SDS011;42463;52.214;21.238;2023-07-13T12:53:14;5.60;;;4.40;;
56581;SDS011;42463;52.214;21.238;2023-07-13T12:55:21;12.50;;;6.80;;
56581;SDS011;42463;52.214;21.238;2023-07-13T12:57:27;7.50;;;5.20;;
56581;SDS011;42463;52.214;21.238;2023-07-13T12:59:33;7.80;;;5.20;;
56581;SDS011;42463;52.214;21.238;2023-07-13T13:01:39;8.00;;;5.60;;
56581;SDS011;42463;52.214;21.238;2023-07-13T13:03:46;10.60;;;5.40;;
56581;SDS011;42463;52.214;21.238;2023-07-13T13:06:01;7.10;;;5.20;;
56581;SDS011;42463;52.214;21.238;2023-07-13T13:08:09;7.30;;;5.20;;
56581;SDS011;42463;52.214;21.238;2023-07-13T13:10:16;7.20;;;5.80;;
56581;SDS011;42463;52.214;21.238;2023-07-13T13:12:24;7.30;;;5.10;;
56581;SDS011;42463;52.214;21.238;2023-07-13T13:14:29;6.40;;;5.00;;
56581;SDS011;42463;52.214;21.238;2023-07-13T13:16:35;8.70;;;5.60;;
56581;SDS011;42463;52.214;21.238;2023-07-13T13:18:47;8.90;;;5.80;;
56581;SDS011;42463;52.214;21.238;2023-07-13T13:20:52;9.70;;;6.00;;
56581;SDS011;42463;52.214;21.238;2023-07-13T13:22:58;11.80;;;5.70;;
56581;SDS011;42463;52.214;21.238;2023-07-13T13:25:04;6.70;;;5.90;;
56581;SDS011;42463;52.214;21.238;2023-07-13T13:27:15;6.00;;;5.40;;
56581;SDS011;42463;52.214;21.238;2023-07-13T13:29:24;9.10;;;6.70;;
56581;SDS011;42463;52.214;21.238;2023-07-13T13:31:30;10.50;;;7.30;;
56581;SDS011;42463;52.214;21.238;2023-07-13T13:33:35;6.80;;;5.90;;
56581;SDS011;42463;52.214;21.238;2023-07-13T13:35:43;9.50;;;6.80;;
56581;SDS011;42463;52.214;21.238;2023-07-13T13:37:49;7.60;;;5.80;;